createdAt,value
2022-10-30T00:01:56.236Z,20.83
2022-10-30T00:04:24.508Z,10.67
2022-10-30T00:06:54.130Z,8.90
2022-10-30T00:09:24.532Z,14.47
2022-10-30T00:11:54.116Z,11.10
2022-10-30T00:14:26.366Z,10.67
2022-10-30T00:16:54.757Z,14.10
2022-10-30T00:19:34.860Z,11.03
2022-10-30T00:24:31.947Z,10.37
2022-10-30T00:27:00.448Z,9.17
2022-10-30T00:29:28.886Z,13.37
2022-10-30T00:31:57.408Z,13.73
2022-10-30T00:34:25.763Z,7.43
2022-10-30T00:36:54.298Z,8.70
2022-10-30T00:39:24.291Z,10.10
2022-10-30T00:41:52.922Z,13.83
2022-10-30T00:44:46.198Z,11.00
2022-10-30T00:47:20.235Z,12.67
2022-10-30T00:49:57.269Z,13.67
2022-10-30T00:52:28.978Z,17.83
2022-10-30T00:55:01.144Z,14.30
2022-10-30T00:57:29.669Z,8.37
2022-10-30T00:59:58.223Z,11.63
2022-10-30T01:02:26.758Z,11.50
2022-10-30T01:04:56.366Z,13.17
2022-10-30T01:07:25.055Z,10.00
2022-10-30T01:09:54.399Z,12.07
2022-10-30T01:12:24.141Z,17.63
2022-10-30T01:14:59.829Z,7.47
2022-10-30T01:17:55.105Z,8.23
2022-10-30T01:20:44.957Z,11.47
2022-10-30T01:23:25.843Z,8.30
2022-10-30T01:26:01.589Z,12.10
2022-10-30T01:28:44.205Z,10.17
2022-10-30T01:31:24.668Z,9.13
2022-10-30T01:34:07.804Z,13.60
2022-10-30T01:36:40.572Z,9.50
2022-10-30T01:39:13.421Z,9.13
2022-10-30T01:41:41.829Z,10.17
2022-10-30T01:44:18.948Z,10.97
2022-10-30T01:47:01.456Z,9.17
2022-10-30T01:49:53.098Z,10.40
2022-10-30T01:52:33.858Z,7.40
2022-10-30T01:55:12.213Z,12.47
2022-10-30T01:57:43.889Z,9.10
2022-10-30T02:00:16.506Z,11.57
2022-10-30T02:02:45.462Z,10.43
2022-10-30T02:05:19.230Z,6.90
2022-10-30T02:07:47.789Z,9.13
2022-10-30T02:10:16.002Z,8.43
2022-10-30T02:12:44.524Z,7.80
2022-10-30T02:15:17.647Z,10.10
2022-10-30T02:17:46.216Z,10.73
2022-10-30T02:20:19.654Z,11.57
2022-10-30T02:22:48.187Z,11.33
2022-10-30T02:25:17.175Z,7.27
2022-10-30T02:27:45.195Z,7.53
2022-10-30T02:30:14.108Z,8.17
2022-10-30T02:32:42.300Z,9.27
2022-10-30T02:35:10.982Z,13.07
2022-10-30T02:37:40.857Z,10.33
2022-10-30T02:40:09.953Z,6.53
2022-10-30T02:42:38.331Z,12.10
2022-10-30T02:45:07.044Z,7.30
2022-10-30T02:47:35.383Z,10.43
2022-10-30T02:50:03.780Z,12.90
2022-10-30T02:52:32.106Z,13.57
2022-10-30T02:55:01.859Z,13.07
2022-10-30T02:57:29.982Z,11.90
2022-10-30T02:59:58.286Z,9.53
2022-10-30T03:02:26.765Z,9.60
2022-10-30T03:04:54.980Z,11.20
2022-10-30T03:07:23.533Z,10.50
2022-10-30T03:09:52.296Z,11.13
2022-10-30T03:12:22.012Z,9.57
2022-10-30T03:14:50.183Z,7.17
2022-10-30T03:17:18.374Z,13.87
2022-10-30T03:19:46.589Z,6.37
2022-10-30T03:22:14.624Z,8.17
2022-10-30T03:24:43.009Z,7.60
2022-10-30T03:27:11.166Z,10.47
2022-10-30T03:29:41.063Z,8.97
2022-10-30T03:32:12.316Z,6.87
2022-10-30T03:34:40.570Z,13.17
2022-10-30T03:37:08.738Z,9.43
2022-10-30T03:39:36.983Z,6.93
2022-10-30T03:42:05.498Z,10.43
2022-10-30T03:44:33.867Z,10.60
2022-10-30T03:47:03.861Z,10.83
2022-10-30T03:49:32.367Z,9.73
2022-10-30T03:52:00.755Z,11.43
2022-10-30T03:54:28.782Z,8.37
2022-10-30T03:56:57.160Z,8.87
2022-10-30T03:59:25.287Z,7.60
2022-10-30T04:01:53.954Z,9.40
2022-10-30T04:04:23.845Z,10.00
2022-10-30T04:06:52.214Z,16.20
2022-10-30T04:09:20.334Z,6.67
2022-10-30T04:11:48.576Z,9.73
2022-10-30T04:14:17.039Z,9.00
2022-10-30T04:16:45.590Z,9.23
2022-10-30T04:19:13.890Z,11.47
2022-10-30T04:21:43.819Z,7.63
2022-10-30T04:24:14.240Z,9.30
2022-10-30T04:26:42.686Z,12.50
2022-10-30T04:29:10.986Z,8.53
2022-10-30T04:31:42.969Z,16.20
2022-10-30T04:34:12.663Z,12.03
2022-10-30T04:36:40.943Z,7.07
2022-10-30T04:39:13.464Z,9.83
2022-10-30T04:41:55.836Z,14.27
2022-10-30T04:44:24.220Z,14.77
2022-10-30T04:46:53.094Z,7.40
2022-10-30T04:49:21.320Z,10.30
2022-10-30T04:51:49.712Z,9.77
2022-10-30T04:54:19.169Z,11.90
2022-10-30T04:56:47.302Z,8.87
2022-10-30T04:59:15.466Z,8.57
2022-10-30T05:01:43.979Z,10.30
2022-10-30T05:04:12.500Z,13.73
2022-10-30T05:06:40.843Z,14.93
2022-10-30T05:09:09.203Z,10.40
2022-10-30T05:11:38.845Z,9.50
2022-10-30T05:14:06.951Z,8.83
2022-10-30T05:16:35.182Z,10.23
2022-10-30T05:19:03.604Z,9.40
2022-10-30T05:21:31.761Z,13.33
2022-10-30T05:24:00.186Z,6.83
2022-10-30T05:26:28.572Z,11.20
2022-10-30T05:28:58.129Z,9.77
2022-10-30T05:31:26.467Z,12.00
2022-10-30T05:33:55.243Z,8.33
2022-10-30T05:36:23.389Z,14.97
2022-10-30T05:38:52.178Z,7.23
2022-10-30T05:41:20.535Z,9.97
2022-10-30T05:43:48.877Z,12.80
2022-10-30T05:46:18.712Z,9.13
2022-10-30T05:48:47.201Z,13.17
2022-10-30T05:51:15.547Z,13.47
2022-10-30T05:53:43.880Z,12.23
2022-10-30T05:56:12.231Z,9.77
2022-10-30T05:58:40.548Z,8.53
2022-10-30T06:01:09.394Z,7.60
2022-10-30T06:03:39.701Z,10.17
2022-10-30T06:06:08.263Z,10.13
2022-10-30T06:08:37.527Z,10.80
2022-10-30T06:11:06.092Z,8.67
2022-10-30T06:13:34.225Z,7.13
2022-10-30T06:16:02.444Z,11.77
2022-10-30T06:18:31.379Z,9.87
2022-10-30T06:21:00.994Z,9.43
2022-10-30T06:23:29.605Z,7.37
2022-10-30T06:25:57.994Z,10.43
2022-10-30T06:28:26.512Z,15.73
2022-10-30T06:30:56.936Z,12.87
2022-10-30T06:33:25.406Z,8.47
2022-10-30T06:35:53.811Z,9.97
2022-10-30T06:38:23.748Z,9.77
2022-10-30T06:40:51.848Z,10.70
2022-10-30T06:43:21.010Z,8.20
2022-10-30T06:45:50.104Z,6.67
2022-10-30T06:48:18.913Z,9.53
2022-10-30T06:50:47.397Z,10.33
2022-10-30T06:53:15.747Z,9.03
2022-10-30T06:55:45.860Z,15.30
2022-10-30T06:58:14.551Z,7.80
2022-10-30T07:00:42.914Z,7.63
2022-10-30T07:03:11.274Z,7.70
2022-10-30T07:05:39.842Z,13.03
2022-10-30T07:08:08.281Z,6.97
2022-10-30T07:10:36.995Z,7.20
2022-10-30T07:13:07.160Z,7.27
2022-10-30T07:15:35.683Z,9.57
2022-10-30T07:18:05.232Z,11.10
2022-10-30T07:23:34.209Z,10.40
2022-10-30T07:26:04.197Z,10.53
2022-10-30T07:31:12.647Z,11.40
2022-10-30T07:33:41.021Z,8.40
2022-10-30T07:36:09.999Z,11.70
2022-10-30T07:38:40.833Z,8.37
2022-10-30T07:41:09.358Z,10.33
2022-10-30T07:43:37.749Z,8.13
2022-10-30T07:46:06.912Z,13.93
2022-10-30T07:48:37.349Z,7.30
2022-10-30T07:51:06.390Z,10.43
2022-10-30T07:53:35.124Z,8.73
2022-10-30T07:56:03.450Z,8.90
2022-10-30T07:58:31.699Z,14.57
2022-10-30T08:01:04.036Z,8.70
2022-10-30T08:03:32.450Z,10.43
2022-10-30T08:06:02.395Z,9.57
2022-10-30T08:08:30.817Z,11.77
2022-10-30T08:10:59.108Z,11.47
2022-10-30T08:13:27.302Z,13.07
2022-10-30T08:15:56.296Z,11.30
2022-10-30T08:18:25.934Z,14.07
2022-10-30T08:20:55.309Z,10.97
2022-10-30T08:23:28.906Z,17.13
2022-10-30T08:26:13.110Z,15.07
2022-10-30T08:28:45.423Z,15.50
2022-10-30T08:31:29.351Z,9.57
2022-10-30T08:33:59.405Z,6.30
2022-10-30T08:36:27.826Z,9.87
2022-10-30T08:38:59.175Z,8.03
2022-10-30T08:41:28.409Z,7.80
2022-10-30T08:43:56.833Z,13.00
2022-10-30T08:46:25.368Z,10.77
2022-10-30T08:48:55.382Z,9.23
2022-10-30T08:51:29.778Z,13.97
2022-10-30T08:54:00.243Z,11.10
2022-10-30T08:59:21.220Z,8.30
2022-10-30T09:01:51.316Z,13.00
2022-10-30T09:04:20.404Z,11.20
2022-10-30T09:06:51.042Z,7.53
2022-10-30T09:09:20.460Z,11.73
2022-10-30T09:11:51.721Z,10.60
2022-10-30T09:14:20.987Z,14.03
2022-10-30T09:16:50.553Z,12.07
2022-10-30T09:19:19.222Z,9.43
2022-10-30T09:21:48.842Z,8.83
2022-10-30T09:24:20.594Z,13.10
2022-10-30T09:27:07.919Z,6.43
2022-10-30T09:29:38.211Z,10.90
2022-10-30T09:32:25.845Z,8.87
2022-10-30T09:35:17.115Z,11.00
2022-10-30T09:41:16.786Z,9.93
2022-10-30T09:44:17.421Z,11.60
2022-10-30T09:47:03.769Z,9.50
2022-10-30T10:00:20.956Z,6.07
2022-10-30T10:03:06.434Z,10.63
2022-10-30T10:05:41.569Z,8.30
2022-10-30T10:08:16.289Z,15.07
2022-10-30T10:10:49.680Z,15.27
2022-10-30T10:13:32.027Z,9.87
2022-10-30T10:16:09.730Z,10.10
2022-10-30T10:18:47.182Z,10.07
2022-10-30T10:21:26.515Z,8.03
2022-10-30T10:23:57.275Z,8.83
2022-10-30T10:26:31.502Z,9.87
2022-10-30T10:29:25.444Z,9.60
2022-10-30T10:32:08.452Z,8.57
2022-10-30T10:35:02.322Z,14.40
2022-10-30T10:38:06.342Z,7.40
2022-10-30T10:40:52.306Z,10.30
2022-10-30T10:43:37.175Z,8.23
2022-10-30T10:46:36.908Z,8.03
2022-10-30T10:49:22.848Z,10.13
2022-10-30T10:54:46.233Z,11.13
2022-10-30T10:57:24.452Z,9.90
2022-10-30T10:59:57.838Z,9.43
2022-10-30T11:02:39.381Z,10.97
2022-10-30T11:05:17.864Z,9.97
2022-10-30T11:07:49.337Z,8.13
2022-10-30T11:10:23.791Z,17.53
2022-10-30T11:12:52.236Z,14.87
2022-10-30T11:15:28.674Z,5.80
2022-10-30T11:18:02.145Z,9.73
2022-10-30T11:20:38.953Z,16.03
2022-10-30T11:23:38.859Z,5.87
2022-10-30T11:26:36.485Z,12.13
2022-10-30T11:29:12.866Z,9.60
2022-10-30T11:31:43.252Z,14.40
2022-10-30T11:34:21.696Z,9.90
2022-10-30T11:36:51.347Z,13.07
2022-10-30T11:39:21.102Z,13.53
2022-10-30T11:41:58.030Z,11.37
2022-10-30T11:44:30.585Z,14.77
2022-10-30T11:47:03.900Z,12.00
2022-10-30T11:49:37.984Z,9.73
2022-10-30T11:52:08.245Z,9.77
2022-10-30T11:54:39.130Z,12.30
2022-10-30T11:57:23.582Z,10.57
2022-10-30T11:59:59.442Z,12.97
2022-10-30T12:02:41.671Z,8.57
2022-10-30T12:05:35.641Z,11.27
2022-10-30T12:08:32.515Z,10.43
2022-10-30T12:11:04.451Z,14.30
2022-10-30T12:16:17.802Z,12.23
2022-10-30T12:19:04.589Z,10.87
2022-10-30T12:21:41.980Z,12.80
2022-10-30T12:24:19.154Z,11.73
2022-10-30T12:26:51.178Z,12.33
2022-10-30T12:32:19.228Z,16.73
2022-10-30T12:34:58.285Z,11.90
2022-10-30T12:37:33.047Z,9.67
2022-10-30T12:40:05.627Z,12.43
2022-10-30T12:42:41.093Z,7.97
2022-10-30T12:45:21.161Z,8.47
2022-10-30T12:47:58.323Z,13.83
2022-10-30T12:50:31.021Z,9.53
2022-10-30T12:53:04.085Z,9.27
2022-10-30T12:55:37.950Z,8.17
2022-10-30T12:58:20.384Z,7.53
2022-10-30T13:11:37.122Z,21.67
2022-10-30T13:14:10.368Z,11.90
2022-10-30T13:16:38.842Z,9.93
2022-10-30T13:19:13.153Z,10.90
2022-10-30T13:21:48.888Z,15.87
2022-10-30T13:24:22.901Z,12.60
2022-10-30T13:26:57.220Z,12.53
2022-10-30T13:29:36.586Z,7.27
2022-10-30T13:32:27.754Z,12.87
2022-10-30T13:35:06.982Z,15.43
2022-10-30T13:37:43.897Z,10.67
2022-10-30T13:44:10.432Z,14.03
2022-10-30T13:46:58.871Z,14.83
2022-10-30T13:49:43.111Z,12.27
2022-10-30T13:52:15.995Z,8.87
2022-10-30T13:54:49.962Z,11.77
2022-10-30T13:57:21.678Z,8.43
2022-10-30T14:00:03.009Z,13.03
2022-10-30T14:02:45.219Z,16.00
2022-10-30T14:05:24.584Z,14.60
2022-10-30T14:08:03.575Z,14.03
2022-10-30T14:11:00.537Z,11.10
2022-10-30T14:13:30.732Z,8.60
2022-10-30T14:16:03.359Z,11.07
2022-10-30T14:18:45.993Z,12.07
2022-10-30T14:21:53.454Z,11.07
2022-10-30T14:24:24.077Z,12.47
2022-10-30T14:26:54.582Z,13.03
2022-10-30T14:29:43.278Z,10.93
2022-10-30T14:32:44.858Z,9.60
2022-10-30T14:35:33.918Z,10.77
2022-10-30T14:38:27.240Z,11.00
2022-10-30T14:41:20.062Z,11.30
2022-10-30T14:44:07.570Z,12.57
2022-10-30T14:46:39.895Z,12.37
2022-10-30T14:49:33.051Z,8.67
2022-10-30T14:52:16.927Z,13.43
2022-10-30T14:54:51.279Z,10.87
2022-10-30T14:57:23.821Z,16.80
2022-10-30T15:00:31.000Z,13.10
2022-10-30T15:03:00.399Z,8.90
2022-10-30T15:05:44.181Z,12.27
2022-10-30T15:08:28.327Z,14.27
2022-10-30T15:11:18.364Z,12.63
2022-10-30T15:13:51.023Z,12.63
2022-10-30T15:16:26.259Z,17.67
2022-10-30T15:19:04.529Z,19.43
2022-10-30T15:21:39.932Z,13.80
2022-10-30T15:24:15.537Z,15.77
2022-10-30T15:26:49.441Z,13.43
2022-10-30T15:29:22.147Z,18.87
2022-10-30T15:32:01.345Z,11.07
2022-10-30T15:34:31.045Z,9.93
2022-10-30T15:36:59.404Z,17.53
2022-10-30T15:39:29.391Z,17.40
2022-10-30T15:42:04.571Z,15.77
2022-10-30T15:44:35.054Z,13.37
2022-10-30T15:47:05.360Z,11.50
2022-10-30T15:49:36.755Z,18.50
2022-10-30T15:52:13.609Z,19.03
2022-10-30T15:54:45.874Z,17.77
2022-10-30T15:57:49.355Z,12.33
2022-10-30T16:00:10.063Z,12.10
2022-10-30T16:02:38.545Z,13.37
2022-10-30T16:05:21.667Z,18.13
2022-10-30T16:07:50.607Z,27.17
2022-10-30T16:10:34.319Z,20.47
2022-10-30T16:13:03.772Z,21.10
2022-10-30T16:15:38.714Z,22.20
2022-10-30T16:18:14.665Z,19.87
2022-10-30T16:20:51.814Z,18.07
2022-10-30T16:23:21.486Z,18.80
2022-10-30T16:25:56.488Z,21.03
2022-10-30T16:28:27.566Z,19.70
2022-10-30T16:30:58.591Z,16.00
2022-10-30T16:33:28.784Z,14.57
2022-10-30T16:35:57.433Z,19.13
2022-10-30T16:38:28.478Z,27.50
2022-10-30T16:40:58.801Z,18.07
2022-10-30T16:43:30.069Z,23.90
2022-10-30T16:46:11.521Z,36.63
2022-10-30T16:48:39.774Z,20.93
2022-10-30T16:51:08.002Z,19.33
2022-10-30T16:53:36.367Z,16.87
2022-10-30T16:56:24.070Z,16.47
2022-10-30T16:58:53.209Z,18.67
2022-10-30T17:01:27.583Z,21.80
2022-10-30T17:03:57.134Z,20.30
2022-10-30T17:06:41.987Z,20.57
2022-10-30T17:09:14.331Z,21.37
2022-10-30T17:11:49.407Z,21.90
2022-10-30T17:14:20.879Z,26.43
2022-10-30T17:16:57.024Z,19.33
2022-10-30T17:19:47.852Z,21.80
2022-10-30T17:22:20.618Z,25.27
2022-10-30T17:24:49.233Z,17.87
2022-10-30T17:27:33.784Z,18.60
2022-10-30T17:30:02.819Z,20.77
2022-10-30T17:32:43.714Z,21.33
2022-10-30T17:35:15.928Z,21.57
2022-10-30T17:37:44.831Z,25.83
2022-10-30T17:40:14.383Z,16.07
2022-10-30T17:42:45.950Z,24.50
2022-10-30T17:45:15.825Z,18.30
2022-10-30T17:47:44.940Z,18.70
2022-10-30T17:50:15.206Z,17.87
2022-10-30T17:52:43.996Z,20.80
2022-10-30T17:55:24.609Z,14.87
2022-10-30T17:57:54.883Z,19.03
2022-10-30T18:00:23.787Z,17.43
2022-10-30T18:02:54.763Z,17.97
2022-10-30T18:05:34.770Z,15.90
2022-10-30T18:08:12.040Z,21.07
2022-10-30T18:10:41.570Z,15.10
2022-10-30T18:13:15.953Z,20.20
2022-10-30T18:15:47.993Z,19.57
2022-10-30T18:25:44.345Z,15.77
2022-10-30T18:56:06.871Z,19.73
2022-10-30T18:58:35.439Z,22.87
2022-10-30T19:01:14.426Z,22.47
2022-10-30T19:03:50.798Z,22.13
2022-10-30T19:06:21.689Z,20.80
2022-10-30T19:08:53.379Z,27.77
2022-10-30T19:11:25.220Z,26.90
2022-10-30T19:13:55.046Z,20.33
2022-10-30T19:19:30.226Z,19.43
2022-10-30T19:21:58.852Z,20.13
2022-10-30T19:28:16.261Z,25.57
2022-10-30T19:30:50.288Z,20.63
2022-10-30T19:33:19.151Z,22.13
2022-10-30T19:36:06.573Z,24.43
2022-10-30T19:38:36.372Z,24.63
2022-10-30T19:41:06.602Z,23.40
2022-10-30T19:43:36.258Z,25.00
2022-10-30T19:46:08.483Z,23.60
2022-10-30T19:48:56.724Z,20.73
2022-10-30T19:51:26.098Z,18.37
2022-10-30T19:53:54.494Z,19.93
2022-10-30T19:56:23.361Z,18.00
2022-10-30T20:06:22.565Z,18.93
2022-10-30T20:08:51.231Z,19.00
2022-10-30T20:11:23.795Z,19.53
2022-10-30T20:13:54.600Z,17.00
2022-10-30T20:16:23.373Z,19.97
2022-10-30T20:18:51.877Z,19.13
2022-10-30T20:21:22.495Z,13.20
2022-10-30T20:23:52.560Z,28.20
2022-10-30T20:26:27.890Z,22.73
2022-10-30T20:28:57.336Z,24.90
2022-10-30T20:31:26.421Z,25.90
2022-10-30T20:33:55.080Z,22.90
2022-10-30T20:36:25.099Z,23.97
2022-10-30T20:38:56.420Z,19.73
2022-10-30T20:41:29.601Z,19.73
2022-10-30T20:43:58.069Z,21.27
2022-10-30T20:46:29.268Z,17.40
2022-10-30T20:48:58.193Z,24.97
2022-10-30T20:51:28.370Z,23.10
2022-10-30T20:53:56.758Z,28.67
2022-10-30T20:56:25.414Z,26.77
2022-10-30T20:58:54.488Z,24.40
2022-10-30T21:01:23.315Z,25.93
2022-10-30T21:03:55.378Z,23.77
2022-10-30T21:06:33.423Z,33.50
2022-10-30T21:09:02.623Z,20.20
2022-10-30T21:11:31.315Z,27.07
2022-10-30T21:13:59.981Z,21.23
2022-10-30T21:16:31.238Z,21.87
2022-10-30T21:18:59.907Z,23.67
2022-10-30T21:21:30.171Z,17.53
2022-10-30T21:23:58.797Z,18.77
2022-10-30T21:26:27.610Z,18.00
2022-10-30T21:28:56.479Z,19.43
2022-10-30T21:31:25.057Z,21.70
2022-10-30T21:33:56.270Z,21.27
2022-10-30T21:36:26.700Z,20.63
2022-10-30T21:39:00.729Z,19.67
2022-10-30T21:41:29.717Z,21.60
2022-10-30T21:44:00.503Z,16.63
2022-10-30T21:46:30.629Z,21.63
2022-10-30T21:49:03.866Z,17.63
2022-10-30T21:51:32.381Z,21.60
2022-10-30T21:54:02.641Z,21.40
2022-10-30T21:56:31.863Z,26.97
2022-10-30T22:01:47.231Z,19.03
2022-10-30T22:04:16.600Z,19.20
2022-10-30T22:06:46.219Z,23.47
2022-10-30T22:09:18.216Z,21.90
2022-10-30T22:11:46.678Z,21.00
2022-10-30T22:14:15.330Z,18.03
2022-10-30T22:16:43.771Z,21.07
2022-10-30T22:19:12.241Z,19.17
2022-10-30T22:21:40.761Z,19.20
2022-10-30T22:24:09.475Z,17.47
2022-10-30T22:26:38.983Z,17.57
2022-10-30T22:29:09.763Z,19.13
2022-10-30T22:31:37.961Z,19.83
2022-10-30T22:34:08.698Z,17.63
2022-10-30T22:36:37.072Z,17.90
2022-10-30T22:39:07.683Z,16.27
2022-10-30T22:41:38.072Z,12.87
2022-10-30T22:44:09.725Z,21.43
2022-10-30T22:46:38.239Z,18.87
2022-10-30T22:49:07.467Z,20.03
2022-10-30T22:51:37.632Z,19.57
2022-10-30T22:54:08.283Z,19.63
2022-10-30T22:56:37.628Z,17.00
2022-10-30T22:59:09.460Z,16.60
2022-10-30T23:01:39.276Z,17.20
2022-10-30T23:04:09.107Z,16.90
2022-10-30T23:06:37.711Z,18.17
2022-10-30T23:09:08.913Z,18.47
2022-10-30T23:11:37.162Z,18.43
2022-10-30T23:14:05.438Z,18.40
2022-10-30T23:16:34.947Z,16.63
2022-10-30T23:19:03.349Z,15.50
2022-10-30T23:21:32.769Z,17.70
2022-10-30T23:24:04.434Z,16.13
2022-10-30T23:26:37.984Z,14.23
2022-10-30T23:29:06.514Z,25.90
2022-10-30T23:31:38.107Z,12.43
2022-10-30T23:34:08.981Z,11.80
2022-10-30T23:36:37.179Z,15.03
2022-10-30T23:39:07.874Z,21.93
2022-10-30T23:41:36.604Z,26.33
2022-10-30T23:44:06.814Z,16.10
2022-10-30T23:46:36.876Z,19.07
2022-10-30T23:49:05.756Z,20.13
2022-10-30T23:51:34.549Z,17.80
2022-10-30T23:54:03.227Z,14.80
2022-10-30T23:56:31.559Z,20.43
2022-10-30T23:59:00.203Z,18.20
